Time;durP1;ratioP1;P1;durP2;ratioP2;P2;SDS_P1;SDS_P2;PMS_P1;PMS_P2;Temp;Humidity;BMP_temperature;BMP_pressure;BME280_temperature;BME280_humidity;BME280_pressure;Samples;Min_cycle;Max_cycle;Signal;HPM_P1;HPM_P2
2021/04/18 00:02:15;;;;;;;44.08;24.90;;;;;;;2.48;92.77;96900.14;1709319;82;21523;-82
2021/04/18 00:04:42;;;;;;;43.92;24.10;;;;;;;2.53;92.81;96898.45;1698099;84;21163;-82
2021/04/18 00:07:09;;;;;;;32.20;18.92;;;;;;;2.58;92.73;96896.51;1709200;83;21096;-82
2021/04/18 00:09:37;;;;;;;34.03;18.65;;;;;;;2.56;92.51;96887.57;1701323;83;21504;-82
2021/04/18 00:12:05;;;;;;;26.40;16.65;;;;;;;2.48;92.27;96890.98;1736128;82;21188;-82
2021/04/18 00:14:32;;;;;;;20.60;14.87;;;;;;;2.38;92.13;96885.75;1710043;82;21160;-82
2021/04/18 00:16:59;;;;;;;24.25;16.07;;;;;;;2.30;91.99;96893.11;1711443;84;21135;-82
2021/04/18 00:19:26;;;;;;;28.10;18.07;;;;;;;2.25;91.93;96895.56;1710027;83;21530;-82
2021/04/18 00:21:53;;;;;;;29.30;19.02;;;;;;;2.20;91.94;96893.61;1712235;84;21552;-82
2021/04/18 00:24:20;;;;;;;38.58;24.70;;;;;;;2.17;91.98;96892.74;1710592;84;21557;-82
2021/04/18 00:26:47;;;;;;;40.38;24.85;;;;;;;2.15;92.07;96886.94;1697931;84;21107;-82
2021/04/18 00:29:14;;;;;;;33.63;22.05;;;;;;;2.15;92.15;96896.09;1708243;83;21133;-82
2021/04/18 00:31:41;;;;;;;38.78;24.43;;;;;;;2.17;92.22;96888.02;1700618;84;21123;-82
2021/04/18 00:34:08;;;;;;;40.08;24.40;;;;;;;2.16;92.22;96890.34;1709695;84;21095;-82
2021/04/18 00:36:35;;;;;;;43.05;25.72;;;;;;;2.19;92.28;96891.22;1726250;82;21178;-82
2021/04/18 00:39:03;;;;;;;39.05;26.02;;;;;;;2.25;92.32;96892.47;1699254;83;21175;-82
2021/04/18 00:41:31;;;;;;;31.65;20.97;;;;;;;2.33;92.38;96888.74;1702847;83;21499;-82
2021/04/18 00:43:58;;;;;;;33.58;20.70;;;;;;;2.38;92.34;96892.28;1711156;84;21147;-82
2021/04/18 00:46:25;;;;;;;33.85;21.45;;;;;;;2.41;92.26;96886.35;1700959;84;21187;-82
2021/04/18 00:48:52;;;;;;;34.15;21.27;;;;;;;2.43;92.21;96889.03;1710319;83;21154;-82
2021/04/18 00:51:19;;;;;;;38.17;22.52;;;;;;;2.41;92.13;96885.05;1712104;84;21111;-82
2021/04/18 00:53:46;;;;;;;42.62;26.35;;;;;;;2.39;92.17;96885.23;1706765;84;21472;-82
2021/04/18 00:56:14;;;;;;;39.10;25.90;;;;;;;2.43;92.18;96884.31;1700979;83;21534;-82
2021/04/18 00:58:41;;;;;;;41.50;25.10;;;;;;;2.48;92.24;96887.06;1703253;83;21518;-82
2021/04/18 01:01:08;;;;;;;38.25;23.35;;;;;;;2.53;92.25;96884.57;1709161;83;21135;-82
2021/04/18 01:03:35;;;;;;;35.25;23.90;;;;;;;2.55;92.19;96882.05;1750512;81;21183;-83
2021/04/18 01:06:04;;;;;;;36.20;21.35;;;;;;;2.58;92.13;96886.04;1762627;81;21196;-82
2021/04/18 01:08:31;;;;;;;31.35;20.00;;;;;;;2.59;92.12;96881.89;1762951;81;21137;-83
2021/04/18 01:10:58;;;;;;;36.08;21.82;;;;;;;2.57;91.99;96887.06;1765560;81;21150;-82
2021/04/18 01:13:25;;;;;;;32.05;20.65;;;;;;;2.54;91.95;96890.92;1763110;81;21122;-82
2021/04/18 01:15:53;;;;;;;33.10;20.25;;;;;;;2.55;91.94;96886.48;1698017;83;21131;-82
2021/04/18 01:18:20;;;;;;;30.92;19.05;;;;;;;2.56;91.98;96884.95;1717249;83;21159;-82
2021/04/18 01:20:47;;;;;;;30.50;19.07;;;;;;;2.61;92.00;96882.97;1704886;83;21172;-83
2021/04/18 01:23:14;;;;;;;26.40;16.77;;;;;;;2.64;91.94;96887.76;1704350;84;21524;-82
2021/04/18 01:25:44;;;;;;;29.72;18.23;;;;;;;2.64;91.90;96883.33;1696695;84;21171;-83
2021/04/18 01:28:11;;;;;;;31.07;19.12;;;;;;;2.68;91.92;96883.19;1724159;82;21101;-82
2021/04/18 01:30:38;;;;;;;28.27;18.17;;;;;;;2.73;91.85;96878.59;1700480;82;21621;-83
2021/04/18 01:33:05;;;;;;;24.27;16.65;;;;;;;2.77;91.81;96880.25;1733622;82;21152;-82
2021/04/18 01:35:33;;;;;;;25.72;16.95;;;;;;;2.78;91.76;96883.95;1711925;83;21172;-82
2021/04/18 01:38:00;;;;;;;26.60;16.95;;;;;;;2.81;91.75;96877.47;1704494;84;21185;-82
2021/04/18 01:40:27;;;;;;;25.60;17.48;;;;;;;2.83;91.71;96880.18;1700005;83;21150;-83
2021/04/18 01:42:54;;;;;;;26.37;16.82;;;;;;;2.80;91.60;96881.91;1704582;84;21145;-82
2021/04/18 01:45:23;;;;;;;22.07;14.33;;;;;;;2.77;91.52;96876.33;1703408;84;21161;-83
2021/04/18 01:47:50;;;;;;;24.20;13.68;;;;;;;2.76;91.57;96882.07;1706608;84;21613;-82
2021/04/18 01:50:19;;;;;;;25.72;15.90;;;;;;;2.76;91.54;96879.97;1710050;83;21242;-82
2021/04/18 01:52:48;;;;;;;27.48;16.80;;;;;;;2.68;91.42;96876.65;1695143;84;21504;-82
2021/04/18 01:55:17;;;;;;;20.97;13.78;;;;;;;2.64;91.46;96872.86;1712712;84;21159;-82
2021/04/18 01:57:45;;;;;;;21.45;14.23;;;;;;;2.59;91.48;96871.42;1723068;83;21151;-83
2021/04/18 02:00:14;;;;;;;27.13;17.07;;;;;;;2.48;91.37;96868.74;1713958;82;21169;-82
2021/04/18 02:02:43;;;;;;;24.18;16.57;;;;;;;2.35;91.44;96871.00;1701798;84;21165;-83
2021/04/18 02:05:12;;;;;;;25.35;16.23;;;;;;;2.26;91.55;96865.28;1708054;84;21609;-83
2021/04/18 02:07:41;;;;;;;24.98;15.83;;;;;;;2.18;91.85;96864.27;1731989;83;21142;-83
2021/04/18 02:10:10;;;;;;;24.50;16.02;;;;;;;2.12;92.00;96872.99;1696649;83;21147;-82
2021/04/18 02:12:37;;;;;;;22.77;15.85;;;;;;;2.08;92.18;96869.19;1697364;84;21254;-82
2021/04/18 02:15:07;;;;;;;22.52;14.55;;;;;;;2.07;92.39;96871.52;1709431;83;21585;-82
2021/04/18 02:17:34;;;;;;;17.52;11.15;;;;;;;2.08;92.54;96862.66;1706453;83;21152;-82
2021/04/18 02:20:01;;;;;;;21.93;13.53;;;;;;;2.07;92.58;96858.45;1690256;84;21152;-82
2021/04/18 02:22:28;;;;;;;22.40;13.38;;;;;;;2.07;92.58;96864.47;1727622;83;21190;-82
2021/04/18 02:24:55;;;;;;;24.90;13.78;;;;;;;2.07;92.62;96864.98;1697796;84;21152;-82
2021/04/18 02:27:25;;;;;;;22.93;12.80;;;;;;;2.07;92.63;96855.83;1724587;83;21649;-82
2021/04/18 02:29:51;;;;;;;20.12;12.90;;;;;;;2.07;92.66;96853.21;1690872;83;21159;-82
2021/04/18 02:32:18;;;;;;;23.35;13.50;;;;;;;2.08;92.63;96853.50;1732562;82;21152;-82
2021/04/18 02:34:46;;;;;;;25.27;14.15;;;;;;;2.07;92.67;96859.24;1697637;84;21127;-82
2021/04/18 02:37:14;;;;;;;26.07;14.90;;;;;;;2.10;92.68;96860.62;1699148;84;21131;-82
2021/04/18 02:39:41;;;;;;;27.70;15.68;;;;;;;2.13;92.80;96858.89;1695400;84;21179;-83
2021/04/18 02:42:09;;;;;;;32.55;17.35;;;;;;;2.21;92.86;96858.59;1708130;83;21150;-82
2021/04/18 02:44:36;;;;;;;38.30;21.15;;;;;;;2.25;92.90;96855.84;1681778;84;21179;-82
2021/04/18 02:47:05;;;;;;;37.63;23.62;;;;;;;2.23;92.82;96855.23;1692395;84;21123;-82
2021/04/18 02:49:32;;;;;;;42.35;23.70;;;;;;;2.22;92.85;96855.46;1688802;84;21146;-83
2021/04/18 02:51:59;;;;;;;36.10;20.70;;;;;;;2.25;92.94;96853.70;1720406;83;21143;-82
2021/04/18 02:54:26;;;;;;;38.95;21.50;;;;;;;2.29;93.00;96854.38;1716961;82;21123;-83
2021/04/18 02:56:53;;;;;;;32.83;17.40;;;;;;;2.31;93.00;96847.11;1730437;82;21179;-82
2021/04/18 02:59:20;;;;;;;39.67;19.60;;;;;;;2.30;93.00;96842.89;1706274;83;21289;-83
2021/04/18 03:01:47;;;;;;;35.68;18.90;;;;;;;2.28;93.02;96842.33;1710503;84;21158;-82
2021/04/18 03:04:14;;;;;;;32.55;17.73;;;;;;;2.27;93.02;96849.08;1699192;84;21187;-82
2021/04/18 03:06:41;;;;;;;34.65;18.37;;;;;;;2.25;93.05;96847.17;1710353;82;21144;-82
2021/04/18 03:09:08;;;;;;;27.90;17.20;;;;;;;2.27;93.11;96848.58;1702803;84;21139;-82
2021/04/18 03:11:36;;;;;;;31.05;17.67;;;;;;;2.30;93.16;96838.97;1704710;83;21505;-82
2021/04/18 03:14:04;;;;;;;34.00;18.98;;;;;;;2.34;93.20;96838.81;1701514;83;21557;-82
2021/04/18 03:16:31;;;;;;;29.23;18.07;;;;;;;2.36;93.17;96836.77;1700638;83;21108;-82
2021/04/18 03:18:58;;;;;;;36.15;19.02;;;;;;;2.37;93.15;96833.13;1672997;84;22479;-82
2021/04/18 03:21:25;;;;;;;34.70;18.60;;;;;;;2.40;93.13;96834.54;1672246;84;21568;-82
2021/04/18 03:23:52;;;;;;;38.63;19.17;;;;;;;2.45;93.16;96828.63;1683329;84;21478;-82
2021/04/18 03:26:19;;;;;;;35.73;19.23;;;;;;;2.48;93.15;96834.73;1684926;84;21153;-82
2021/04/18 03:28:46;;;;;;;35.52;18.87;;;;;;;2.53;93.19;96834.85;1699132;83;21482;-82
2021/04/18 03:31:13;;;;;;;34.55;19.30;;;;;;;2.55;93.20;96838.87;1695477;84;21556;-82
2021/04/18 03:33:41;;;;;;;34.78;19.27;;;;;;;2.58;93.15;96833.19;1681173;85;21129;-83
2021/04/18 03:36:10;;;;;;;31.07;16.23;;;;;;;2.60;93.12;96830.34;1694762;83;21547;-82
2021/04/18 03:38:38;;;;;;;33.15;17.02;;;;;;;2.60;92.97;96832.96;1702870;84;21108;-82
2021/04/18 03:41:05;;;;;;;30.25;17.12;;;;;;;2.52;92.83;96833.25;1698875;84;21137;-82
2021/04/18 03:43:33;;;;;;;33.35;17.10;;;;;;;2.45;92.80;96829.94;1681591;84;21163;-82
2021/04/18 03:46:00;;;;;;;33.00;17.65;;;;;;;2.43;92.81;96835.91;1684527;84;21202;-82
2021/04/18 03:48:27;;;;;;;31.95;18.32;;;;;;;2.42;92.90;96833.00;1697242;84;21144;-82
2021/04/18 03:50:54;;;;;;;27.37;16.93;;;;;;;2.49;93.06;96835.02;1692651;83;21213;-82
2021/04/18 03:53:21;;;;;;;33.40;17.32;;;;;;;2.54;93.16;96838.58;1705069;84;21199;-82
2021/04/18 03:55:48;;;;;;;34.80;18.40;;;;;;;2.53;93.07;96833.03;1701328;84;21139;-82
2021/04/18 03:58:15;;;;;;;34.58;19.15;;;;;;;2.51;93.06;96838.20;1692455;84;21190;-82
2021/04/18 04:00:42;;;;;;;35.03;19.32;;;;;;;2.51;93.01;96840.82;1693775;83;21142;-82
2021/04/18 04:03:09;;;;;;;33.98;18.02;;;;;;;2.43;92.88;96831.98;1692293;84;21104;-83
2021/04/18 04:05:36;;;;;;;36.98;18.90;;;;;;;2.40;92.93;96834.54;1679484;84;21205;-82
2021/04/18 04:08:05;;;;;;;39.05;19.48;;;;;;;2.37;92.96;96832.34;1680308;84;21231;-83
2021/04/18 04:10:33;;;;;;;37.93;19.13;;;;;;;2.32;92.99;96835.63;1711491;83;21546;-82
2021/04/18 04:13:00;;;;;;;33.78;18.85;;;;;;;2.27;93.05;96840.73;1725932;83;21578;-82
2021/04/18 04:15:27;;;;;;;30.70;16.82;;;;;;;2.24;93.12;96847.68;1711776;83;21528;-82
2021/04/18 04:17:54;;;;;;;38.35;18.12;;;;;;;2.25;93.24;96848.48;1704024;83;21135;-82
2021/04/18 04:20:21;;;;;;;32.20;16.12;;;;;;;2.25;93.30;96848.00;1726918;81;21544;-82
2021/04/18 04:22:48;;;;;;;37.83;18.45;;;;;;;2.26;93.37;96843.05;1721069;83;21217;-82
2021/04/18 04:25:15;;;;;;;33.13;18.40;;;;;;;2.25;93.42;96844.55;1711180;82;21183;-82
2021/04/18 04:27:42;;;;;;;38.98;18.48;;;;;;;2.26;93.51;96839.13;1717567;83;21458;-82
2021/04/18 04:30:11;;;;;;;29.25;16.52;;;;;;;2.30;93.67;96840.79;1668520;85;21098;-82
2021/04/18 04:32:38;;;;;;;38.38;19.00;;;;;;;2.32;93.72;96835.63;1726030;83;21498;-82
2021/04/18 04:35:07;;;;;;;38.92;19.95;;;;;;;2.35;93.76;96838.30;1694046;84;21128;-82
2021/04/18 04:37:34;;;;;;;44.90;20.27;;;;;;;2.36;93.80;96836.77;1692357;84;21135;-82
2021/04/18 04:40:00;;;;;;;44.58;21.40;;;;;;;2.41;93.87;96837.95;1696889;84;21151;-82
2021/04/18 04:42:27;;;;;;;45.30;21.27;;;;;;;2.44;93.92;96842.23;1682628;84;21146;-83
2021/04/18 04:44:54;;;;;;;41.23;21.17;;;;;;;2.50;93.96;96837.91;1726036;83;21130;-82
2021/04/18 04:47:21;;;;;;;40.12;20.95;;;;;;;2.56;94.02;96835.23;1727784;82;21495;-82
2021/04/18 04:49:48;;;;;;;47.17;20.72;;;;;;;2.66;94.12;96837.30;1694556;83;21518;-82
2021/04/18 04:52:15;;;;;;;46.85;23.18;;;;;;;2.73;94.10;96834.09;1695666;84;21137;-82
2021/04/18 04:54:42;;;;;;;45.20;22.25;;;;;;;2.74;94.02;96837.00;1718933;83;21485;-83
2021/04/18 04:57:09;;;;;;;40.52;22.27;;;;;;;2.76;94.00;96838.87;1725851;82;21092;-82
2021/04/18 04:59:36;;;;;;;41.42;22.65;;;;;;;2.79;93.97;96843.66;1696665;83;21537;-82
2021/04/18 05:02:03;;;;;;;44.03;23.00;;;;;;;2.82;93.95;96837.20;1710199;83;21154;-83
2021/04/18 05:04:30;;;;;;;39.05;19.05;;;;;;;2.85;93.95;96834.13;1692526;84;21165;-83
2021/04/18 05:06:58;;;;;;;35.13;18.52;;;;;;;2.87;93.93;96838.13;1692658;84;21180;-83
2021/04/18 05:09:26;;;;;;;33.92;20.02;;;;;;;2.81;93.77;96837.69;1702332;83;21113;-83
2021/04/18 05:11:55;;;;;;;39.95;21.80;;;;;;;2.75;93.77;96843.03;1757781;81;21172;-82
2021/04/18 05:14:23;;;;;;;48.65;23.98;;;;;;;2.70;93.78;96841.59;1764284;81;21149;-82
2021/04/18 05:16:50;;;;;;;45.23;23.50;;;;;;;2.68;93.87;96843.13;1708195;83;21167;-82
2021/04/18 05:19:17;;;;;;;51.75;27.70;;;;;;;2.67;93.93;96842.34;1719915;81;21525;-82
2021/04/18 05:21:44;;;;;;;43.70;27.00;;;;;;;2.68;93.99;96845.23;1698275;84;21146;-83
2021/04/18 05:24:11;;;;;;;48.87;25.77;;;;;;;2.69;94.02;96846.03;1696843;84;21103;-82
2021/04/18 05:26:38;;;;;;;51.33;26.45;;;;;;;2.69;94.06;96844.73;1729729;82;21115;-82
2021/04/18 05:29:05;;;;;;;52.17;26.65;;;;;;;2.71;94.14;96840.58;1689340;83;21170;-83
2021/04/18 05:31:33;;;;;;;48.17;24.18;;;;;;;2.75;94.21;96845.13;1766804;81;21119;-83
2021/04/18 05:34:00;;;;;;;50.35;24.60;;;;;;;2.77;94.19;96847.02;1768133;80;21149;-83
2021/04/18 05:36:27;;;;;;;48.28;25.65;;;;;;;2.82;94.32;96843.75;1759185;81;21125;-82
2021/04/18 05:38:54;;;;;;;48.68;24.20;;;;;;;2.88;94.36;96844.16;1769843;80;21183;-82
2021/04/18 05:41:21;;;;;;;49.90;23.10;;;;;;;2.93;94.37;96842.45;1768148;80;21111;-82
2021/04/18 05:43:50;;;;;;;55.67;26.37;;;;;;;2.93;94.35;96840.34;1730352;82;21117;-82
2021/04/18 05:46:18;;;;;;;48.55;24.05;;;;;;;2.97;94.45;96835.77;1700083;83;21166;-82
2021/04/18 05:48:44;;;;;;;52.30;26.00;;;;;;;3.04;94.52;96838.27;1702526;83;21151;-82
2021/04/18 05:51:12;;;;;;;53.68;25.65;;;;;;;3.12;94.54;96841.09;1759203;80;21508;-83
2021/04/18 05:53:39;;;;;;;55.33;26.23;;;;;;;3.18;94.61;96839.67;1749081;81;21156;-82
2021/04/18 05:56:06;;;;;;;56.23;27.32;;;;;;;3.27;94.62;96842.77;1768746;81;21160;-82
2021/04/18 05:58:34;;;;;;;57.38;28.07;;;;;;;3.34;94.66;96844.76;1687687;83;21145;-83
2021/04/18 06:01:01;;;;;;;52.60;28.30;;;;;;;3.41;94.59;96848.08;1736963;81;21159;-83
2021/04/18 06:03:28;;;;;;;50.45;25.68;;;;;;;3.47;94.50;96851.09;1725481;82;21542;-83
2021/04/18 06:05:55;;;;;;;56.55;28.67;;;;;;;3.54;94.48;96847.88;1724122;82;21179;-83
2021/04/18 06:08:23;;;;;;;50.75;26.85;;;;;;;3.62;94.47;96849.84;1753696;80;21210;-83
2021/04/18 06:10:50;;;;;;;50.15;25.32;;;;;;;3.70;94.36;96852.14;1746829;81;21145;-83
2021/04/18 06:13:17;;;;;;;42.90;24.72;;;;;;;3.76;94.24;96852.53;1743756;81;21145;-83
2021/04/18 06:15:44;;;;;;;41.73;24.23;;;;;;;3.83;94.19;96857.95;1757479;81;21483;-82
2021/04/18 06:18:11;;;;;;;36.68;20.43;;;;;;;3.92;94.20;96859.70;1751670;81;21273;-83
2021/04/18 06:20:38;;;;;;;40.20;22.62;;;;;;;3.97;93.98;96859.03;1752407;81;21161;-82
2021/04/18 06:23:05;;;;;;;37.23;20.72;;;;;;;3.98;93.76;96863.25;1699499;83;21135;-82
2021/04/18 06:25:33;;;;;;;38.40;20.40;;;;;;;3.97;93.51;96863.77;1754323;81;21117;-83
2021/04/18 06:28:00;;;;;;;35.90;22.05;;;;;;;3.88;93.15;96868.55;1762185;81;21337;-82
2021/04/18 06:30:27;;;;;;;36.80;21.77;;;;;;;3.89;93.17;96862.78;1748935;81;21226;-82
2021/04/18 06:32:55;;;;;;;40.65;23.20;;;;;;;3.95;93.30;96865.02;1746313;81;21682;-83
2021/04/18 06:35:22;;;;;;;35.17;22.73;;;;;;;4.00;93.22;96864.61;1750073;81;21266;-82
2021/04/18 06:37:49;;;;;;;35.23;23.47;;;;;;;4.07;93.25;96863.95;1748133;81;21344;-83
2021/04/18 06:40:16;;;;;;;42.45;24.63;;;;;;;4.20;93.26;96869.99;1742202;81;21124;-82
2021/04/18 06:42:45;;;;;;;38.35;23.75;;;;;;;4.27;93.21;96863.60;1746227;81;21143;-82
2021/04/18 06:45:13;;;;;;;39.10;24.30;;;;;;;4.36;93.07;96867.95;1748460;81;21127;-82
2021/04/18 06:47:41;;;;;;;38.63;24.98;;;;;;;4.43;92.90;96865.50;1751698;81;21499;-82
2021/04/18 06:50:11;;;;;;;38.45;23.92;;;;;;;4.51;92.81;96867.49;1761172;80;21274;-83
2021/04/18 06:52:38;;;;;;;38.92;22.17;;;;;;;4.57;92.69;96871.80;1758895;81;21270;-82
2021/04/18 06:55:08;;;;;;;42.43;24.35;;;;;;;4.58;92.43;96863.69;1745094;81;21527;-82
2021/04/18 06:57:37;;;;;;;38.33;24.55;;;;;;;4.56;92.05;96866.27;1733322;81;21143;-82
2021/04/18 07:00:08;;;;;;;36.03;20.97;;;;;;;4.54;91.80;96870.44;1755136;81;21298;-82
2021/04/18 07:02:36;;;;;;;38.25;22.65;;;;;;;4.59;91.83;96872.36;1750564;81;21634;-82
2021/04/18 07:05:13;;;;;;;35.45;20.88;;;;;;;4.68;91.95;96869.14;1746712;81;21162;-82
2021/04/18 07:07:43;;;;;;;34.23;21.48;;;;;;;4.81;91.94;96873.83;1717362;83;22551;-84
2021/04/18 07:10:30;;;;;;;34.30;21.87;;;;;;;4.89;91.80;96868.98;1739332;81;21467;-84
2021/04/18 07:13:10;;;;;;;29.50;17.85;;;;;;;4.95;91.59;96868.06;1741189;81;21119;-84
2021/04/18 07:15:41;;;;;;;31.40;19.05;;;;;;;5.04;91.48;96868.45;1700437;83;21139;-84
2021/04/18 07:18:12;;;;;;;27.95;17.67;;;;;;;4.97;90.46;96866.51;1707052;84;21174;-84
2021/04/18 07:20:54;;;;;;;31.97;19.98;;;;;;;4.89;90.02;96876.06;1720921;83;21111;-85
2021/04/18 07:23:29;;;;;;;35.60;21.73;;;;;;;4.85;89.92;96878.89;1686423;84;21440;-85
2021/04/18 07:25:58;;;;;;;33.53;21.40;;;;;;;4.87;89.95;96872.88;1712641;83;21489;-85
2021/04/18 07:28:27;;;;;;;36.75;21.68;;;;;;;4.98;90.26;96879.92;1726547;83;21100;-85
2021/04/18 07:31:00;;;;;;;34.45;21.30;;;;;;;5.05;89.98;96876.62;1698999;84;21147;-85
2021/04/18 07:33:24;;;;;;;37.88;22.93;;;;;;;5.14;89.49;96880.47;1698148;83;21149;-85
2021/04/18 07:35:51;;;;;;;37.15;23.52;;;;;;;5.23;89.25;96876.95;1689179;84;21141;-85
2021/04/18 07:38:23;;;;;;;30.57;19.75;;;;;;;5.50;89.58;96870.55;1718299;83;21152;-85
2021/04/18 07:41:16;;;;;;;31.12;20.17;;;;;;;5.93;89.99;96868.08;1685433;83;21657;-85
2021/04/18 07:43:46;;;;;;;28.20;17.92;;;;;;;6.46;89.72;96869.80;1696421;84;21197;-85
2021/04/18 07:46:15;;;;;;;36.75;21.50;;;;;;;6.84;87.79;96867.60;1697599;84;21151;-85
2021/04/18 07:48:46;;;;;;;34.50;22.85;;;;;;;7.48;87.46;96857.13;1706973;83;21219;-85
2021/04/18 07:51:16;;;;;;;33.83;22.25;;;;;;;7.83;85.76;96859.75;1719698;83;21519;-85
2021/04/18 07:53:46;;;;;;;34.30;21.75;;;;;;;7.97;84.10;96870.13;1700261;84;21499;-85
2021/04/18 07:56:15;;;;;;;40.65;25.05;;;;;;;7.94;82.71;96866.69;1693448;84;21200;-85
2021/04/18 07:58:45;;;;;;;34.30;22.00;;;;;;;7.90;81.53;96868.26;1730962;81;21170;-85
2021/04/18 08:01:13;;;;;;;32.40;21.48;;;;;;;8.09;79.78;96862.02;1686286;84;21166;-85
2021/04/18 08:03:43;;;;;;;29.30;19.87;;;;;;;8.08;78.73;96856.48;1695912;84;21103;-85
2021/04/18 08:06:10;;;;;;;23.57;15.32;;;;;;;9.81;83.11;96847.09;1690793;84;21192;-83
2021/04/18 08:08:51;;;;;;;27.87;19.48;;;;;;;12.42;81.97;96838.58;1697551;82;21166;-83
2021/04/18 08:11:22;;;;;;;26.05;18.77;;;;;;;13.51;72.45;96842.43;1730662;82;21164;-84
2021/04/18 08:13:53;;;;;;;29.48;21.10;;;;;;;13.37;67.05;96842.89;1700531;84;21523;-84
2021/04/18 08:16:31;;;;;;;23.10;16.40;;;;;;;13.63;70.03;96840.08;1711258;83;21188;-84
2021/04/18 08:19:11;;;;;;;23.18;17.37;;;;;;;14.16;60.89;96838.36;1685420;84;21188;-84
2021/04/18 08:21:42;;;;;;;24.02;17.62;;;;;;;13.93;57.98;96840.64;1717075;83;21119;-84
2021/04/18 08:24:24;;;;;;;22.37;16.95;;;;;;;12.55;58.52;96846.41;1690468;84;21123;-84
2021/04/18 08:27:08;;;;;;;22.30;16.57;;;;;;;12.58;59.03;96842.63;1735970;82;21179;-84
2021/04/18 08:29:56;;;;;;;21.37;14.87;;;;;;;12.02;58.08;96841.92;1689556;84;21174;-84
2021/04/18 08:32:42;;;;;;;28.47;17.65;;;;;;;10.70;59.32;96845.01;1689893;84;21419;-84
2021/04/18 08:35:17;;;;;;;24.15;16.62;;;;;;;10.33;63.61;96851.25;1690400;84;21230;-84
2021/04/18 08:37:44;;;;;;;23.12;15.23;;;;;;;10.35;62.51;96850.44;1701656;84;21170;-84
2021/04/18 08:40:12;;;;;;;25.05;15.75;;;;;;;10.96;63.19;96846.97;1700016;83;21203;-83
2021/04/18 08:42:40;;;;;;;22.85;15.98;;;;;;;11.76;60.22;96842.67;1706696;84;21498;-84
2021/04/18 08:45:09;;;;;;;26.85;16.80;;;;;;;12.11;59.90;96840.78;1700873;84;21136;-84
2021/04/18 08:47:37;;;;;;;23.20;14.90;;;;;;;12.54;59.53;96842.95;1722345;82;21175;-84
2021/04/18 08:50:09;;;;;;;24.25;15.68;;;;;;;12.33;56.60;96837.07;1686099;83;21575;-84
2021/04/18 08:52:37;;;;;;;23.65;16.40;;;;;;;11.46;55.97;96853.55;1691332;84;21538;-84
2021/04/18 08:57:49;;;;;;;23.18;16.62;;;;;;;10.91;60.40;96832.42;1862903;75;22806;-83
2021/04/18 09:00:17;;;;;;;23.57;15.93;;;;;;;11.06;61.33;96839.48;1850271;76;21474;-83
2021/04/18 09:02:54;;;;;;;25.27;15.48;;;;;;;10.94;60.65;96836.38;1844644;76;21072;-84
2021/04/18 09:05:23;;;;;;;24.77;16.32;;;;;;;10.44;58.83;96836.91;1847965;77;21076;-84
2021/04/18 09:07:50;;;;;;;24.45;16.62;;;;;;;9.69;60.51;96837.30;1835258;77;21237;-84
2021/04/18 09:10:17;;;;;;;28.30;18.12;;;;;;;9.64;62.86;96835.46;1831120;77;21142;-84
2021/04/18 09:12:47;;;;;;;26.25;17.67;;;;;;;9.83;62.44;96825.89;1837775;77;21728;-84
2021/04/18 09:15:15;;;;;;;24.60;17.17;;;;;;;9.65;61.69;96821.70;1845085;77;21096;-83
2021/04/18 09:17:43;;;;;;;23.67;14.65;;;;;;;9.78;64.26;96827.23;1851630;77;21119;-83
2021/04/18 09:20:15;;;;;;;30.15;20.23;;;;;;;10.08;62.53;96821.61;1799651;78;21139;-83
2021/04/18 09:22:43;;;;;;;26.57;17.15;;;;;;;9.68;62.94;96820.63;1772902;80;21170;-83
2021/04/18 09:25:17;;;;;;;25.52;17.00;;;;;;;9.18;63.62;96834.14;1762553;80;21135;-83
2021/04/18 09:27:54;;;;;;;24.50;16.93;;;;;;;8.86;63.75;96827.73;1804004;79;21086;-84
2021/04/18 09:30:29;;;;;;;26.70;17.98;;;;;;;8.85;64.66;96827.99;1790651;79;21159;-84
2021/04/18 09:32:59;;;;;;;25.20;17.15;;;;;;;9.07;65.94;96826.45;1795920;79;21150;-84
2021/04/18 09:35:28;;;;;;;26.35;17.75;;;;;;;9.46;66.11;96826.22;1776643;79;21588;-84
2021/04/18 09:38:00;;;;;;;25.92;17.12;;;;;;;9.88;66.43;96823.00;1791659;79;21470;-84
2021/04/18 09:40:35;;;;;;;24.82;16.27;;;;;;;10.08;65.94;96817.11;1788287;79;21205;-84
2021/04/18 09:43:06;;;;;;;25.20;16.15;;;;;;;10.14;63.59;96826.38;1785121;80;21515;-84
2021/04/18 09:45:35;;;;;;;;;;;;;;;9.75;63.57;96823.81;1786358;80;21143;-83
2021/04/18 09:48:18;;;;;;;27.87;17.12;;;;;;;9.27;63.72;96830.43;1780010;80;20150;-83
2021/04/18 09:51:01;;;;;;;27.85;18.70;;;;;;;9.11;64.03;96831.48;1787759;80;21111;-84
2021/04/18 09:53:29;;;;;;;27.30;18.60;;;;;;;8.74;64.15;96827.73;1790407;79;21091;-84
2021/04/18 09:56:04;;;;;;;29.77;18.62;;;;;;;8.53;65.81;96830.30;1780203;79;21142;-84
2021/04/18 09:58:36;;;;;;;31.65;20.55;;;;;;;8.65;66.29;96824.78;1771775;79;21138;-84
2021/04/18 10:01:06;;;;;;;26.75;18.45;;;;;;;8.60;66.41;96828.74;1763160;80;21135;-84
2021/04/18 10:03:37;;;;;;;27.55;17.80;;;;;;;8.70;66.26;96826.64;1783280;79;21100;-84
2021/04/18 10:06:05;;;;;;;28.83;18.40;;;;;;;8.54;66.29;96825.80;1768509;80;21114;-84
2021/04/18 10:08:38;;;;;;;28.20;18.50;;;;;;;8.36;66.04;96821.78;1784208;79;21114;-84
2021/04/18 10:11:17;;;;;;;28.95;19.80;;;;;;;8.36;67.59;96820.98;1768366;80;21434;-84
2021/04/18 10:13:50;;;;;;;27.25;18.40;;;;;;;8.50;67.53;96826.06;1800791;79;21134;-83
2021/04/18 10:16:27;;;;;;;26.82;15.68;;;;;;;8.49;66.60;96831.08;1781586;79;21176;-84
2021/04/18 10:19:15;;;;;;;26.02;16.57;;;;;;;8.47;66.47;96823.94;1775013;79;21540;-84
2021/04/18 10:21:47;;;;;;;21.25;14.45;;;;;;;8.54;66.50;96820.52;1784270;79;21107;-84
2021/04/18 10:24:41;;;;;;;21.48;15.05;;;;;;;8.43;65.57;96822.84;1769715;80;21217;-84
2021/04/18 10:27:12;;;;;;;23.85;16.62;;;;;;;8.33;65.56;96828.34;1783798;80;21151;-84
2021/04/18 10:29:42;;;;;;;23.90;16.25;;;;;;;8.26;66.34;96819.85;1787532;79;21131;-84
2021/04/18 10:32:09;;;;;;;22.87;15.47;;;;;;;8.35;65.90;96817.55;1771776;79;21455;-84
2021/04/18 10:34:38;;;;;;;19.70;14.15;;;;;;;8.20;65.83;96815.61;1786967;79;22199;-84
2021/04/18 10:37:06;;;;;;;26.57;16.02;;;;;;;8.25;66.88;96814.30;1781678;80;21535;-84
2021/04/18 10:39:34;;;;;;;21.55;15.23;;;;;;;8.35;67.38;96817.55;1774915;79;21123;-84
2021/04/18 10:42:02;;;;;;;23.52;14.95;;;;;;;8.63;67.76;96809.19;1785667;79;21147;-84
2021/04/18 10:44:29;;;;;;;21.62;14.58;;;;;;;8.82;67.35;96815.30;1778887;79;21251;-84
2021/04/18 10:47:00;;;;;;;22.00;14.07;;;;;;;8.90;67.45;96824.84;1791715;79;21253;-84
2021/04/18 10:49:29;;;;;;;19.90;13.40;;;;;;;8.86;65.99;96818.48;1787674;79;21127;-84
2021/04/18 10:51:58;;;;;;;21.48;14.45;;;;;;;8.71;64.95;96822.41;1794935;79;21262;-84
2021/04/18 10:54:26;;;;;;;19.92;14.38;;;;;;;8.40;65.90;96824.16;1782715;79;21148;-84
2021/04/18 10:56:54;;;;;;;19.20;13.18;;;;;;;8.40;67.29;96826.02;1783049;79;21142;-84
2021/04/18 10:59:22;;;;;;;20.08;13.58;;;;;;;8.49;66.70;96827.11;1788138;80;21160;-84
2021/04/18 11:01:52;;;;;;;19.32;12.78;;;;;;;8.38;66.70;96823.63;1776342;79;21116;-84
2021/04/18 11:04:20;;;;;;;18.70;12.35;;;;;;;8.54;67.62;96828.44;1817739;78;21114;-84
2021/04/18 11:06:48;;;;;;;22.13;13.88;;;;;;;8.63;66.17;96829.02;1783902;80;21102;-84
2021/04/18 11:09:17;;;;;;;18.87;13.25;;;;;;;8.47;66.71;96826.58;1773500;80;21159;-84
2021/04/18 11:11:44;;;;;;;20.15;13.22;;;;;;;8.66;66.22;96822.94;1787730;79;21146;-84
2021/04/18 11:14:12;;;;;;;20.82;12.68;;;;;;;8.73;65.97;96827.46;1762567;80;21477;-84
2021/04/18 11:16:39;;;;;;;18.73;12.47;;;;;;;8.76;66.11;96822.44;1786668;78;21121;-84
2021/04/18 11:19:06;;;;;;;19.10;12.88;;;;;;;8.71;65.87;96820.30;1798436;79;21116;-84
2021/04/18 11:21:34;;;;;;;19.92;12.82;;;;;;;8.37;64.73;96827.86;1795572;79;21126;-84
2021/04/18 11:24:01;;;;;;;16.60;12.33;;;;;;;8.22;65.97;96824.59;1773084;79;21156;-84
2021/04/18 11:26:28;;;;;;;21.55;13.98;;;;;;;8.31;66.40;96823.85;1767682;80;21449;-84
2021/04/18 11:28:56;;;;;;;18.92;13.98;;;;;;;8.40;67.27;96822.84;1776697;80;21193;-83
2021/04/18 11:31:25;;;;;;;34.38;20.62;;;;;;;8.54;67.54;96825.27;1781195;80;21135;-84
2021/04/18 11:33:52;;;;;;;130.32;70.40;;;;;;;8.68;67.22;96826.11;1794368;79;21095;-84
2021/04/18 11:36:19;;;;;;;34.53;23.05;;;;;;;8.76;67.79;96817.68;1790964;79;21099;-84